createdAt,value
2019-01-10T00:00:48.512Z,0.00
2019-01-10T00:01:49.631Z,0.00
2019-01-10T00:02:48.487Z,0.00
2019-01-10T00:03:48.476Z,0.00
2019-01-10T00:04:48.462Z,0.00
2019-01-10T00:05:48.457Z,0.00
2019-01-10T00:06:48.447Z,0.00
2019-01-10T00:07:48.454Z,0.00
2019-01-10T00:08:48.424Z,0.00
2019-01-10T00:09:48.406Z,0.00
2019-01-10T00:10:48.402Z,0.00
2019-01-10T00:11:48.385Z,0.00
2019-01-10T00:12:48.403Z,0.00
2019-01-10T00:13:48.373Z,0.00
2019-01-10T00:14:48.355Z,0.00
2019-01-10T00:15:48.352Z,0.00
2019-01-10T00:16:48.338Z,0.00
2019-01-10T00:17:50.067Z,0.00
2019-01-10T00:18:48.320Z,0.00
2019-01-10T00:19:48.313Z,0.00
2019-01-10T00:20:48.290Z,0.00
2019-01-10T00:21:48.280Z,0.00
2019-01-10T00:22:48.272Z,0.00
2019-01-10T00:23:48.258Z,0.00
2019-01-10T00:24:48.252Z,0.00
2019-01-10T00:25:48.258Z,0.00
2019-01-10T00:26:48.245Z,0.00
2019-01-10T00:27:48.225Z,0.00
2019-01-10T00:28:48.239Z,0.00
2019-01-10T00:29:48.196Z,0.00
2019-01-10T00:30:48.308Z,0.00
2019-01-10T00:31:48.194Z,0.00
2019-01-10T00:32:48.182Z,0.00
2019-01-10T00:33:48.155Z,0.00
2019-01-10T00:34:48.153Z,0.00
2019-01-10T00:35:48.138Z,0.00
2019-01-10T00:36:48.127Z,0.00
2019-01-10T00:37:48.120Z,0.00
2019-01-10T00:38:48.108Z,0.00
2019-01-10T00:39:48.102Z,0.00
2019-01-10T00:40:48.100Z,0.00
2019-01-10T00:41:48.085Z,0.00
2019-01-10T00:42:49.781Z,0.00
2019-01-10T00:43:48.055Z,0.00
2019-01-10T00:44:48.034Z,0.00
2019-01-10T00:45:48.039Z,0.00
2019-01-10T00:46:48.020Z,0.00
2019-01-10T00:47:48.014Z,0.00
2019-01-10T00:48:48.010Z,0.00
2019-01-10T00:49:47.986Z,0.00
2019-01-10T00:50:47.980Z,0.00
2019-01-10T00:51:47.966Z,0.00
2019-01-10T00:52:47.981Z,0.00
2019-01-10T00:53:47.953Z,0.00
2019-01-10T00:54:47.952Z,0.00
2019-01-10T00:55:47.925Z,0.00
2019-01-10T00:56:47.937Z,0.00
2019-01-10T00:57:47.938Z,0.00
2019-01-10T00:58:47.894Z,0.00
2019-01-10T00:59:47.892Z,0.00
2019-01-10T01:00:47.879Z,0.00
2019-01-10T01:01:47.864Z,0.00
2019-01-10T01:02:47.853Z,0.00
2019-01-10T01:03:47.850Z,0.00
2019-01-10T01:04:47.838Z,0.00
2019-01-10T01:05:47.820Z,0.00
2019-01-10T01:06:47.827Z,0.00
2019-01-10T01:07:47.806Z,0.00
2019-01-10T01:08:47.791Z,0.00
2019-01-10T01:09:48.303Z,0.00
2019-01-10T01:10:47.766Z,0.00
2019-01-10T01:11:47.759Z,0.00
2019-01-10T01:12:47.763Z,0.00
2019-01-10T01:13:47.735Z,0.00
2019-01-10T01:14:47.724Z,0.00
2019-01-10T01:15:47.726Z,0.00
2019-01-10T01:16:47.706Z,0.00
2019-01-10T01:17:47.781Z,0.00
2019-01-10T01:18:47.684Z,0.00
2019-01-10T01:19:47.683Z,0.00
2019-01-10T01:20:47.720Z,0.00
2019-01-10T01:21:47.652Z,0.00
2019-01-10T01:22:47.643Z,0.00
2019-01-10T01:23:48.261Z,0.00
2019-01-10T01:24:47.620Z,0.00
2019-01-10T01:25:47.613Z,0.00
2019-01-10T01:26:47.610Z,0.00
2019-01-10T01:27:47.593Z,0.00
2019-01-10T01:28:47.586Z,0.00
2019-01-10T01:29:47.573Z,0.00
2019-01-10T01:30:47.561Z,0.00
2019-01-10T01:31:47.582Z,0.00
2019-01-10T01:32:47.540Z,0.00
2019-01-10T01:33:47.537Z,0.00
2019-01-10T01:34:47.528Z,0.00
2019-01-10T01:35:47.522Z,0.00
2019-01-10T01:36:47.495Z,0.00
2019-01-10T01:37:47.482Z,0.00
2019-01-10T01:38:47.489Z,0.00
2019-01-10T01:39:47.469Z,0.00
2019-01-10T01:40:47.455Z,0.00
2019-01-10T01:41:47.449Z,0.00
2019-01-10T01:42:47.436Z,0.00
2019-01-10T01:43:47.419Z,0.00
2019-01-10T01:44:47.419Z,0.00
2019-01-10T01:45:47.466Z,0.00
2019-01-10T01:46:47.410Z,0.00
2019-01-10T01:47:47.395Z,0.00
2019-01-10T01:48:47.373Z,0.00
2019-01-10T01:49:47.356Z,0.00
2019-01-10T01:50:47.347Z,0.00
2019-01-10T01:51:47.342Z,0.00
2019-01-10T01:52:47.334Z,0.00
2019-01-10T01:53:47.312Z,0.00
2019-01-10T01:54:47.308Z,0.00
2019-01-10T01:55:47.296Z,0.00
2019-01-10T01:56:47.282Z,0.00
2019-01-10T01:57:47.271Z,0.00
2019-01-10T01:58:47.263Z,0.00
2019-01-10T01:59:47.249Z,0.00
2019-01-10T02:00:47.239Z,0.00
2019-01-10T02:01:47.227Z,0.00
2019-01-10T02:02:47.219Z,0.00
2019-01-10T02:03:47.224Z,0.00
2019-01-10T02:04:47.200Z,0.00
2019-01-10T02:05:47.185Z,0.00
2019-01-10T02:06:47.180Z,0.00
2019-01-10T02:07:47.176Z,0.00
2019-01-10T02:08:47.164Z,0.00
2019-01-10T02:09:47.163Z,0.00
2019-01-10T02:10:47.148Z,0.00
2019-01-10T02:11:47.127Z,0.00
2019-01-10T02:12:47.117Z,0.00
2019-01-10T02:13:47.111Z,0.00
2019-01-10T02:14:47.130Z,0.00
2019-01-10T02:15:47.086Z,0.00
2019-01-10T02:16:47.077Z,0.00
2019-01-10T02:17:49.297Z,0.00
2019-01-10T02:18:47.046Z,0.00
2019-01-10T02:19:47.038Z,0.00
2019-01-10T02:20:47.025Z,0.00
2019-01-10T02:21:47.018Z,0.00
2019-01-10T02:22:47.016Z,0.00
2019-01-10T02:23:47.002Z,0.00
2019-01-10T02:24:46.992Z,0.00
2019-01-10T02:25:46.974Z,0.00
2019-01-10T02:26:46.964Z,0.00
2019-01-10T02:27:46.966Z,0.00
2019-01-10T02:28:46.944Z,0.00
2019-01-10T02:29:46.947Z,0.00
2019-01-10T02:30:46.929Z,0.00
2019-01-10T02:31:46.919Z,0.00
2019-01-10T02:32:46.905Z,0.00
2019-01-10T02:33:46.896Z,0.00
2019-01-10T02:34:46.888Z,0.00
2019-01-10T02:35:46.875Z,0.00
2019-01-10T02:36:46.867Z,0.00
2019-01-10T02:37:46.865Z,0.00
2019-01-10T02:38:46.848Z,0.00
2019-01-10T02:39:46.839Z,0.00
2019-01-10T02:40:46.820Z,0.00
2019-01-10T02:41:46.810Z,0.00
2019-01-10T02:42:46.804Z,0.00
2019-01-10T02:43:46.785Z,0.00
2019-01-10T02:44:46.823Z,0.00
2019-01-10T02:45:47.350Z,0.00
2019-01-10T02:46:46.757Z,0.00
2019-01-10T02:47:46.743Z,0.00
2019-01-10T02:48:46.751Z,0.00
2019-01-10T02:49:46.729Z,0.00
2019-01-10T02:50:46.735Z,0.00
2019-01-10T02:51:46.703Z,0.00
2019-01-10T02:52:46.695Z,0.00
2019-01-10T02:53:46.681Z,0.00
2019-01-10T02:54:46.683Z,0.00
2019-01-10T02:55:46.676Z,0.00
2019-01-10T02:56:47.286Z,0.00
2019-01-10T02:57:46.647Z,0.00
2019-01-10T02:58:46.629Z,0.00
2019-01-10T02:59:46.628Z,0.00
2019-01-10T03:00:46.610Z,0.00
2019-01-10T03:01:46.614Z,0.00
2019-01-10T03:02:46.600Z,0.00
2019-01-10T03:03:46.583Z,0.00
2019-01-10T03:04:46.587Z,0.00
2019-01-10T03:05:46.561Z,0.00
2019-01-10T03:06:46.544Z,0.00
2019-01-10T03:07:46.536Z,0.00
2019-01-10T03:08:46.540Z,0.00
2019-01-10T03:09:46.519Z,0.00
2019-01-10T03:10:46.501Z,0.00
2019-01-10T03:11:46.489Z,0.00
2019-01-10T03:12:46.485Z,0.00
2019-01-10T03:13:46.473Z,0.00
2019-01-10T03:14:46.475Z,0.00
2019-01-10T03:15:46.467Z,0.00
2019-01-10T03:16:46.447Z,0.00
2019-01-10T03:17:46.430Z,0.00
2019-01-10T03:18:46.428Z,0.00
2019-01-10T03:19:46.409Z,0.00
2019-01-10T03:20:46.402Z,0.00
2019-01-10T03:21:46.396Z,0.00
2019-01-10T03:22:46.385Z,0.00
2019-01-10T03:23:46.362Z,0.00
2019-01-10T03:24:46.361Z,0.00
2019-01-10T03:25:46.350Z,0.00
2019-01-10T03:26:46.335Z,0.00
2019-01-10T03:27:46.362Z,0.00
2019-01-10T03:28:46.317Z,0.00
2019-01-10T03:29:46.305Z,0.00
2019-01-10T03:30:46.296Z,0.00
2019-01-10T03:31:46.300Z,0.00
2019-01-10T03:32:46.286Z,0.00
2019-01-10T03:33:46.257Z,0.00
2019-01-10T03:34:46.263Z,0.00
2019-01-10T03:35:46.243Z,0.00
2019-01-10T03:36:46.241Z,0.00
2019-01-10T03:37:46.224Z,0.00
2019-01-10T03:38:46.219Z,0.00
2019-01-10T03:39:46.202Z,0.00
2019-01-10T03:40:46.189Z,0.00
2019-01-10T03:41:47.081Z,0.00
2019-01-10T03:42:46.221Z,0.00
2019-01-10T03:43:47.505Z,0.00
2019-01-10T03:44:46.153Z,0.00
2019-01-10T03:45:46.132Z,0.00
2019-01-10T03:46:46.125Z,0.00
2019-01-10T03:47:46.121Z,0.00
2019-01-10T03:48:46.105Z,0.00
2019-01-10T03:49:46.090Z,0.00
2019-01-10T03:50:46.080Z,0.00
2019-01-10T03:51:46.081Z,0.00
2019-01-10T03:52:46.063Z,0.00
2019-01-10T03:53:46.052Z,0.00
2019-01-10T03:54:46.047Z,0.00
2019-01-10T03:55:46.038Z,0.00
2019-01-10T03:56:46.020Z,0.00
2019-01-10T03:57:46.013Z,0.00
2019-01-10T03:58:46.010Z,0.00
2019-01-10T03:59:45.983Z,0.00
2019-01-10T04:00:45.984Z,0.00
2019-01-10T04:01:45.965Z,0.00
2019-01-10T04:02:45.961Z,0.00
2019-01-10T04:03:45.951Z,0.00
2019-01-10T04:04:45.940Z,0.00
2019-01-10T04:05:45.928Z,0.00
2019-01-10T04:06:45.917Z,0.00
2019-01-10T04:07:45.906Z,0.00
2019-01-10T04:08:45.897Z,0.00
2019-01-10T04:09:45.888Z,0.00
2019-01-10T04:10:45.877Z,0.00
2019-01-10T04:11:45.877Z,0.00
2019-01-10T04:12:45.861Z,0.00
2019-01-10T04:13:45.843Z,0.00
2019-01-10T04:14:45.835Z,0.00
2019-01-10T04:15:45.823Z,0.00
2019-01-10T04:16:45.815Z,0.00
2019-01-10T04:17:45.811Z,0.00
2019-01-10T04:18:45.805Z,0.00
2019-01-10T04:19:45.779Z,0.00
2019-01-10T04:20:45.784Z,0.00
2019-01-10T04:21:45.783Z,0.00
2019-01-10T04:22:45.765Z,0.00
2019-01-10T04:23:45.739Z,0.00
2019-01-10T04:24:45.732Z,0.00
2019-01-10T04:25:45.718Z,0.00
2019-01-10T04:26:45.707Z,0.00
2019-01-10T04:27:45.691Z,0.00
2019-01-10T04:28:45.694Z,0.00
2019-01-10T04:29:45.676Z,0.00
2019-01-10T04:30:46.413Z,0.00
2019-01-10T04:31:45.662Z,0.00
2019-01-10T04:32:46.329Z,0.00
2019-01-10T04:33:45.673Z,0.00
2019-01-10T04:34:45.630Z,0.00
2019-01-10T04:35:45.615Z,0.00
2019-01-10T04:36:45.602Z,0.00
2019-01-10T04:37:45.615Z,0.00
2019-01-10T04:38:45.591Z,0.00
2019-01-10T04:39:45.565Z,0.00
2019-01-10T04:40:45.564Z,0.00
2019-01-10T04:41:45.553Z,0.00
2019-01-10T04:42:45.536Z,0.00
2019-01-10T04:43:45.527Z,0.00
2019-01-10T04:44:45.523Z,0.00
2019-01-10T04:45:45.503Z,0.00
2019-01-10T04:46:45.505Z,0.00
2019-01-10T04:47:45.507Z,0.00
2019-01-10T04:48:45.480Z,0.00
2019-01-10T04:49:45.462Z,0.00
2019-01-10T04:50:45.460Z,0.00
2019-01-10T04:51:45.447Z,0.00
2019-01-10T04:52:45.441Z,0.00
2019-01-10T04:53:45.440Z,0.00
2019-01-10T04:54:45.411Z,0.00
2019-01-10T04:55:45.407Z,0.00
2019-01-10T04:56:45.399Z,0.00
2019-01-10T04:57:45.388Z,0.00
2019-01-10T04:58:45.414Z,0.00
2019-01-10T04:59:45.367Z,0.00
2019-01-10T05:00:45.343Z,0.00
2019-01-10T05:01:45.335Z,0.00
2019-01-10T05:02:45.339Z,0.00
2019-01-10T05:03:45.321Z,0.00
2019-01-10T05:04:45.315Z,0.00
2019-01-10T05:05:45.296Z,0.00
2019-01-10T05:06:45.282Z,0.00
2019-01-10T05:07:45.290Z,0.00
2019-01-10T05:08:45.301Z,0.00
2019-01-10T05:09:45.253Z,0.00
2019-01-10T05:10:45.247Z,0.00
2019-01-10T05:11:45.231Z,0.00
2019-01-10T05:12:45.219Z,0.00
2019-01-10T05:13:45.215Z,0.00
2019-01-10T05:14:45.197Z,0.00
2019-01-10T05:15:45.188Z,0.00
2019-01-10T05:16:45.178Z,0.00
2019-01-10T05:17:45.173Z,0.00
2019-01-10T05:18:45.174Z,0.00
2019-01-10T05:19:45.156Z,0.00
2019-01-10T05:20:45.138Z,0.00
2019-01-10T05:21:45.129Z,0.00
2019-01-10T05:22:45.122Z,0.00
2019-01-10T05:23:45.109Z,0.00
2019-01-10T05:24:45.100Z,0.00
2019-01-10T05:25:45.085Z,0.00
2019-01-10T05:26:45.076Z,0.00
2019-01-10T05:27:45.069Z,0.00
2019-01-10T05:28:45.055Z,0.00
2019-01-10T05:29:45.045Z,0.00
2019-01-10T05:30:45.035Z,0.00
2019-01-10T05:31:45.027Z,0.00
2019-01-10T05:32:45.014Z,0.00
2019-01-10T05:33:45.001Z,0.00
2019-01-10T05:34:44.992Z,0.00
2019-01-10T05:35:44.978Z,0.00
2019-01-10T05:36:44.977Z,0.00
2019-01-10T05:37:44.962Z,0.00
2019-01-10T05:38:44.962Z,0.00
2019-01-10T05:39:47.736Z,0.00
2019-01-10T05:40:44.929Z,0.00
2019-01-10T05:41:44.921Z,0.00
2019-01-10T05:42:44.920Z,0.00
2019-01-10T05:43:44.898Z,0.00
2019-01-10T05:44:44.884Z,0.00
2019-01-10T05:45:45.023Z,0.00
2019-01-10T05:46:48.595Z,0.00
2019-01-10T05:47:44.857Z,0.00
2019-01-10T05:48:47.127Z,0.00
2019-01-10T05:49:44.839Z,0.00
2019-01-10T05:50:44.823Z,0.00
2019-01-10T05:51:44.812Z,0.00
2019-01-10T05:52:44.810Z,0.00
2019-01-10T05:53:44.795Z,0.00
2019-01-10T05:54:44.784Z,0.00
2019-01-10T05:55:44.768Z,0.00
2019-01-10T05:56:44.764Z,0.00
2019-01-10T05:57:44.748Z,0.00
2019-01-10T05:58:44.739Z,0.00
2019-01-10T05:59:44.734Z,0.00
2019-01-10T06:00:44.718Z,0.00
2019-01-10T06:01:44.711Z,0.00
2019-01-10T06:02:44.706Z,0.00
2019-01-10T06:03:52.985Z,0.00
2019-01-10T06:04:45.683Z,0.00
2019-01-10T06:05:44.670Z,0.00
2019-01-10T06:06:44.651Z,0.00
2019-01-10T06:07:44.650Z,0.00
2019-01-10T06:08:44.634Z,0.00
2019-01-10T06:09:44.628Z,0.00
2019-01-10T06:10:45.734Z,0.00
2019-01-10T06:11:44.610Z,0.00
2019-01-10T06:12:44.598Z,0.00
2019-01-10T06:13:44.581Z,0.00
2019-01-10T06:14:44.578Z,0.00
2019-01-10T06:15:44.563Z,0.00
2019-01-10T06:16:45.242Z,0.00
2019-01-10T06:17:44.548Z,0.00
2019-01-10T06:18:44.531Z,0.00
2019-01-10T06:19:44.518Z,0.00
2019-01-10T06:20:44.547Z,0.00
2019-01-10T06:21:44.533Z,0.00
2019-01-10T06:22:44.485Z,0.00
2019-01-10T06:23:44.488Z,0.00
2019-01-10T06:24:44.464Z,0.00
2019-01-10T06:25:44.454Z,0.00
2019-01-10T06:26:44.465Z,0.00
2019-01-10T06:27:44.438Z,0.00
2019-01-10T06:28:45.450Z,0.00
2019-01-10T06:29:44.423Z,0.00
2019-01-10T06:30:44.408Z,0.00
2019-01-10T06:31:44.395Z,0.00
2019-01-10T06:32:44.390Z,0.00
2019-01-10T06:33:44.416Z,0.00
2019-01-10T06:34:44.365Z,0.00
2019-01-10T06:35:44.352Z,0.00
2019-01-10T06:36:44.365Z,0.00
2019-01-10T06:37:44.341Z,0.00
2019-01-10T06:38:44.321Z,0.00
2019-01-10T06:39:44.316Z,0.00
2019-01-10T06:40:44.304Z,0.00
2019-01-10T06:41:44.295Z,0.00
2019-01-10T06:42:44.284Z,0.00
2019-01-10T06:43:44.307Z,0.00
2019-01-10T06:44:44.791Z,0.00
2019-01-10T06:45:44.246Z,0.00
2019-01-10T06:46:44.258Z,0.00
2019-01-10T06:47:44.228Z,0.00
2019-01-10T06:48:44.226Z,0.00
2019-01-10T06:49:44.217Z,0.00
2019-01-10T06:50:44.203Z,0.00
2019-01-10T06:51:44.187Z,0.00
2019-01-10T06:52:44.194Z,0.00
2019-01-10T06:53:44.167Z,0.00
2019-01-10T06:54:44.162Z,0.00
2019-01-10T06:55:44.151Z,0.00
2019-01-10T06:56:44.601Z,0.00
2019-01-10T06:57:44.140Z,0.00
2019-01-10T06:58:44.150Z,0.00
2019-01-10T06:59:44.103Z,0.00
2019-01-10T07:00:44.110Z,0.00
2019-01-10T07:01:44.088Z,0.00
2019-01-10T07:02:44.073Z,0.00
2019-01-10T07:03:44.093Z,0.00
2019-01-10T07:04:44.067Z,0.00
2019-01-10T07:05:44.048Z,0.00
2019-01-10T07:06:44.036Z,0.00
2019-01-10T07:07:44.029Z,0.00
2019-01-10T07:08:44.016Z,0.00
2019-01-10T07:09:44.000Z,0.00
2019-01-10T07:10:43.984Z,0.00
2019-01-10T07:11:43.984Z,0.00
2019-01-10T07:12:43.968Z,0.00
2019-01-10T07:13:43.964Z,0.00
2019-01-10T07:14:43.948Z,0.00
2019-01-10T07:15:43.935Z,0.00
2019-01-10T07:16:53.264Z,0.00
2019-01-10T07:17:44.920Z,0.00
2019-01-10T07:18:43.903Z,0.00
2019-01-10T07:19:43.895Z,0.00
2019-01-10T07:20:43.889Z,0.00
2019-01-10T07:21:43.882Z,0.00
2019-01-10T07:22:43.864Z,0.00
2019-01-10T07:23:43.869Z,0.00
2019-01-10T07:24:43.860Z,0.00
2019-01-10T07:25:43.832Z,0.00
2019-01-10T07:26:43.833Z,0.00
2019-01-10T07:27:43.817Z,0.00
2019-01-10T07:28:43.808Z,0.00
2019-01-10T07:29:44.438Z,0.00
2019-01-10T07:30:43.781Z,0.00
2019-01-10T07:31:43.771Z,0.00
2019-01-10T07:32:43.777Z,0.00
2019-01-10T07:33:43.749Z,0.00
2019-01-10T07:34:43.742Z,0.00
2019-01-10T07:35:43.742Z,5.62
2019-01-10T07:36:43.724Z,5.62
2019-01-10T07:37:43.708Z,5.62
2019-01-10T07:38:43.692Z,5.62
2019-01-10T07:39:43.694Z,5.62
2019-01-10T07:40:43.696Z,5.62
2019-01-10T07:41:43.759Z,5.62
2019-01-10T07:42:43.663Z,5.62
2019-01-10T07:43:43.656Z,0.00
2019-01-10T07:44:43.654Z,0.00
2019-01-10T07:45:43.653Z,5.62
2019-01-10T07:46:43.611Z,0.00
2019-01-10T07:47:43.607Z,0.00
2019-01-10T07:48:43.591Z,5.62
2019-01-10T07:49:43.583Z,5.62
2019-01-10T07:50:43.575Z,5.62
2019-01-10T07:51:44.391Z,5.62
2019-01-10T07:52:43.549Z,5.62
2019-01-10T07:53:43.539Z,5.62
2019-01-10T07:54:43.537Z,5.62
2019-01-10T07:55:43.522Z,5.62
2019-01-10T07:56:43.507Z,5.62
2019-01-10T07:57:43.492Z,5.62
2019-01-10T07:58:43.491Z,5.62
2019-01-10T07:59:43.481Z,5.62
2019-01-10T08:00:43.484Z,5.62
2019-01-10T08:01:43.511Z,5.62
2019-01-10T08:02:43.444Z,5.62
2019-01-10T08:03:43.432Z,5.62
2019-01-10T08:04:43.428Z,5.62
2019-01-10T08:05:43.428Z,5.62
2019-01-10T08:06:43.397Z,5.62
2019-01-10T08:07:43.391Z,5.62
2019-01-10T08:08:43.401Z,5.62
2019-01-10T08:09:43.391Z,5.62
2019-01-10T08:10:43.358Z,5.62
2019-01-10T08:11:43.372Z,5.62
2019-01-10T08:12:43.339Z,5.62
2019-01-10T08:13:43.388Z,5.62
2019-01-10T08:14:43.935Z,11.25
2019-01-10T08:15:43.308Z,11.25
2019-01-10T08:16:43.314Z,11.25
2019-01-10T08:17:43.284Z,11.25
2019-01-10T08:18:43.269Z,11.25
2019-01-10T08:19:43.269Z,11.25
2019-01-10T08:20:43.261Z,11.25
2019-01-10T08:21:43.254Z,11.25
2019-01-10T08:22:43.228Z,11.25
2019-01-10T08:23:43.219Z,11.25
2019-01-10T08:24:43.245Z,16.88
2019-01-10T08:25:43.201Z,16.88
2019-01-10T08:26:43.192Z,22.50
2019-01-10T08:27:43.320Z,22.50
2019-01-10T08:28:43.279Z,16.88
2019-01-10T08:29:43.171Z,22.50
2019-01-10T08:30:43.149Z,16.88
2019-01-10T08:31:43.139Z,16.88
2019-01-10T08:32:43.152Z,16.88
2019-01-10T08:33:43.186Z,11.25
2019-01-10T08:34:43.115Z,11.25
2019-01-10T08:35:43.097Z,11.25
2019-01-10T08:36:43.087Z,11.25
2019-01-10T08:37:43.103Z,11.25
2019-01-10T08:38:43.117Z,11.25
2019-01-10T08:39:43.055Z,11.25
2019-01-10T08:40:43.051Z,11.25
2019-01-10T08:41:43.027Z,11.25
2019-01-10T08:42:43.025Z,16.88
2019-01-10T08:43:43.038Z,11.25
2019-01-10T08:44:43.131Z,11.25
2019-01-10T08:45:42.994Z,11.25
2019-01-10T08:46:42.989Z,11.25
2019-01-10T08:47:42.967Z,11.25
2019-01-10T08:48:42.955Z,11.25
2019-01-10T08:49:42.964Z,11.25
2019-01-10T08:50:42.943Z,11.25
2019-01-10T08:51:42.932Z,16.88
2019-01-10T08:52:42.973Z,16.88
2019-01-10T08:53:42.904Z,16.88
2019-01-10T08:54:42.903Z,16.88
2019-01-10T08:55:42.992Z,16.88
2019-01-10T08:56:42.882Z,16.88
2019-01-10T08:57:42.870Z,16.88
2019-01-10T08:58:42.857Z,16.88
2019-01-10T08:59:42.843Z,16.88
2019-01-10T09:00:42.839Z,22.50
2019-01-10T09:01:42.825Z,22.50
2019-01-10T09:02:42.826Z,16.88
2019-01-10T09:03:42.802Z,22.50
2019-01-10T09:04:42.799Z,22.50
2019-01-10T09:05:42.777Z,16.88
2019-01-10T09:06:42.763Z,16.88
2019-01-10T09:07:42.762Z,22.50
2019-01-10T09:08:42.757Z,22.50
2019-01-10T09:09:43.115Z,22.50
2019-01-10T09:10:42.727Z,22.50
2019-01-10T09:11:42.709Z,16.88
2019-01-10T09:12:42.717Z,22.50
2019-01-10T09:13:42.698Z,22.50
2019-01-10T09:14:42.705Z,28.12
2019-01-10T09:15:42.686Z,39.38
2019-01-10T09:16:42.752Z,45.00
2019-01-10T09:17:42.647Z,45.00
2019-01-10T09:18:42.644Z,39.38
2019-01-10T09:19:42.641Z,39.38
2019-01-10T09:20:42.629Z,39.38
2019-01-10T09:21:42.608Z,33.75
2019-01-10T09:22:42.603Z,33.75
2019-01-10T09:23:42.599Z,33.75
2019-01-10T09:24:42.582Z,39.38
2019-01-10T09:25:42.571Z,39.38
2019-01-10T09:26:42.568Z,39.38
2019-01-10T09:27:42.550Z,45.00
2019-01-10T09:28:42.544Z,50.62
2019-01-10T09:29:42.701Z,56.25
2019-01-10T09:30:42.523Z,50.62
2019-01-10T09:31:42.524Z,50.62
2019-01-10T09:32:42.505Z,50.62
2019-01-10T09:33:42.483Z,39.38
2019-01-10T09:34:42.477Z,39.38
2019-01-10T09:35:42.462Z,39.38
2019-01-10T09:36:42.458Z,33.75
2019-01-10T09:37:42.455Z,39.38
2019-01-10T09:38:42.440Z,39.38
2019-01-10T09:39:42.425Z,56.25
2019-01-10T09:40:42.417Z,67.50
2019-01-10T09:41:42.412Z,67.50
2019-01-10T09:42:42.400Z,61.88
2019-01-10T09:43:42.391Z,56.25
2019-01-10T09:44:42.377Z,50.62
2019-01-10T09:45:43.381Z,45.00
2019-01-10T09:46:42.365Z,56.25
2019-01-10T09:47:42.363Z,45.00
2019-01-10T09:48:42.327Z,39.38
2019-01-10T09:49:42.340Z,39.38
2019-01-10T09:50:42.313Z,45.00
2019-01-10T09:51:42.296Z,33.75
2019-01-10T09:52:42.289Z,33.75
2019-01-10T09:53:42.286Z,28.12
2019-01-10T09:54:42.266Z,28.12
2019-01-10T09:55:42.257Z,28.12
2019-01-10T09:56:42.254Z,33.75
2019-01-10T09:57:42.240Z,28.12
2019-01-10T09:58:42.236Z,28.12
2019-01-10T09:59:43.021Z,33.75
2019-01-10T10:00:42.270Z,33.75
2019-01-10T10:01:42.252Z,28.12
2019-01-10T10:02:42.191Z,22.50
2019-01-10T10:03:42.176Z,28.12
2019-01-10T10:04:42.169Z,28.12
2019-01-10T10:05:42.174Z,28.12
2019-01-10T10:06:42.162Z,28.12
2019-01-10T10:07:42.138Z,22.50
2019-01-10T10:08:42.147Z,22.50
2019-01-10T10:09:42.118Z,28.12
2019-01-10T10:10:42.126Z,28.12
2019-01-10T10:11:42.096Z,28.12
2019-01-10T10:12:42.110Z,28.12
2019-01-10T10:13:42.077Z,33.75
2019-01-10T10:14:42.064Z,39.38
2019-01-10T10:15:42.047Z,39.38
2019-01-10T10:16:42.043Z,39.38
2019-01-10T10:17:42.036Z,28.12
2019-01-10T10:18:42.019Z,28.12
2019-01-10T10:19:42.004Z,22.50
2019-01-10T10:20:41.999Z,33.75
2019-01-10T10:21:41.985Z,39.38
2019-01-10T10:22:41.988Z,39.38
2019-01-10T10:23:41.963Z,50.62
2019-01-10T10:24:41.954Z,56.25
2019-01-10T10:25:41.944Z,67.50
2019-01-10T10:26:41.939Z,73.12
2019-01-10T10:27:41.930Z,73.12
2019-01-10T10:28:42.011Z,67.50
2019-01-10T10:29:42.446Z,50.62
2019-01-10T10:30:41.900Z,50.62
2019-01-10T10:31:41.877Z,56.25
2019-01-10T10:32:41.877Z,50.62
2019-01-10T10:33:41.859Z,39.38
2019-01-10T10:34:41.850Z,33.75
2019-01-10T10:35:41.835Z,33.75
2019-01-10T10:36:41.828Z,39.38
2019-01-10T10:37:41.818Z,39.38
2019-01-10T10:38:41.812Z,39.38
2019-01-10T10:39:41.801Z,45.00
2019-01-10T10:40:41.785Z,50.62
2019-01-10T10:41:41.788Z,45.00
2019-01-10T10:42:41.767Z,45.00
2019-01-10T10:43:41.783Z,45.00
2019-01-10T10:44:41.743Z,45.00
2019-01-10T10:45:41.736Z,39.38
2019-01-10T10:46:41.730Z,45.00
2019-01-10T10:47:41.735Z,50.62
2019-01-10T10:48:41.722Z,50.62
2019-01-10T10:49:41.723Z,45.00
2019-01-10T10:50:41.687Z,45.00
2019-01-10T10:51:41.672Z,50.62
2019-01-10T10:52:41.669Z,61.88
2019-01-10T10:53:41.648Z,50.62
2019-01-10T10:54:41.649Z,45.00
2019-01-10T10:55:41.650Z,45.00
2019-01-10T10:56:41.716Z,45.00
2019-01-10T10:57:41.615Z,50.62
2019-01-10T10:58:41.609Z,56.25
2019-01-10T10:59:41.591Z,61.88
2019-01-10T11:00:41.595Z,73.12
2019-01-10T11:01:41.570Z,67.50
2019-01-10T11:02:41.572Z,50.62
2019-01-10T11:03:41.555Z,39.38
2019-01-10T11:04:41.548Z,45.00
2019-01-10T11:05:41.525Z,50.62
2019-01-10T11:06:41.522Z,56.25
2019-01-10T11:07:41.505Z,50.62
2019-01-10T11:08:41.501Z,50.62
2019-01-10T11:09:41.490Z,50.62
2019-01-10T11:10:41.478Z,39.38
2019-01-10T11:11:41.465Z,45.00
2019-01-10T11:12:41.563Z,50.62
2019-01-10T11:13:41.441Z,56.25
2019-01-10T11:14:41.438Z,61.88
2019-01-10T11:15:42.801Z,67.50
2019-01-10T11:16:41.415Z,61.88
2019-01-10T11:17:41.404Z,56.25
2019-01-10T11:18:41.390Z,61.88
2019-01-10T11:19:41.381Z,61.88
2019-01-10T11:20:41.376Z,73.12
2019-01-10T11:21:41.371Z,78.75
2019-01-10T11:22:41.356Z,78.75
2019-01-10T11:23:41.348Z,67.50
2019-01-10T11:24:41.328Z,56.25
2019-01-10T11:25:41.321Z,45.00
2019-01-10T11:26:41.307Z,39.38
2019-01-10T11:27:41.303Z,33.75
2019-01-10T11:28:41.296Z,33.75
2019-01-10T11:29:41.283Z,33.75
2019-01-10T11:30:41.267Z,33.75
2019-01-10T11:31:41.262Z,33.75
2019-01-10T11:32:41.253Z,45.00
2019-01-10T11:33:41.288Z,56.25
2019-01-10T11:34:41.241Z,61.88
2019-01-10T11:35:41.221Z,67.50
2019-01-10T11:36:41.200Z,67.50
2019-01-10T11:37:41.217Z,61.88
2019-01-10T11:38:41.196Z,67.50
2019-01-10T11:39:41.178Z,56.25
2019-01-10T11:40:41.167Z,50.62
2019-01-10T11:41:41.180Z,45.00
2019-01-10T11:42:41.148Z,45.00
2019-01-10T11:43:41.238Z,56.25
2019-01-10T11:44:41.123Z,56.25
2019-01-10T11:45:41.117Z,61.88
2019-01-10T11:46:41.975Z,67.50
2019-01-10T11:47:41.100Z,73.12
2019-01-10T11:48:41.086Z,78.75
2019-01-10T11:49:41.075Z,73.12
2019-01-10T11:50:41.057Z,50.62
2019-01-10T11:51:41.052Z,45.00
2019-01-10T11:52:41.052Z,39.38
2019-01-10T11:53:41.040Z,39.38
2019-01-10T11:54:41.018Z,33.75
2019-01-10T11:55:41.012Z,33.75
2019-01-10T11:56:41.005Z,33.75
2019-01-10T11:57:40.989Z,39.38
2019-01-10T11:58:41.001Z,45.00
2019-01-10T11:59:40.966Z,45.00
2019-01-10T12:00:40.957Z,50.62
2019-01-10T12:01:40.948Z,56.25
2019-01-10T12:02:40.938Z,56.25
2019-01-10T12:03:40.934Z,50.62
2019-01-10T12:04:40.921Z,45.00
2019-01-10T12:05:47.512Z,39.38
2019-01-10T12:06:41.903Z,39.38
2019-01-10T12:07:40.884Z,39.38
2019-01-10T12:08:40.882Z,39.38
2019-01-10T12:09:40.895Z,33.75
2019-01-10T12:10:40.855Z,33.75
2019-01-10T12:11:40.843Z,39.38
2019-01-10T12:12:40.831Z,39.38
2019-01-10T12:13:40.832Z,45.00
2019-01-10T12:14:40.810Z,39.38
2019-01-10T12:15:40.833Z,33.75
2019-01-10T12:16:40.790Z,28.12
2019-01-10T12:17:40.776Z,22.50
2019-01-10T12:18:40.772Z,22.50
2019-01-10T12:19:40.776Z,28.12
2019-01-10T12:20:40.762Z,22.50
2019-01-10T12:21:40.735Z,22.50
2019-01-10T12:22:40.724Z,22.50
2019-01-10T12:23:40.716Z,22.50
2019-01-10T12:24:40.704Z,28.12
2019-01-10T12:25:40.706Z,28.12
2019-01-10T12:26:40.685Z,22.50
2019-01-10T12:27:40.670Z,28.12
2019-01-10T12:28:40.660Z,28.12
2019-01-10T12:29:40.660Z,28.12
2019-01-10T12:30:40.645Z,33.75
2019-01-10T12:31:40.633Z,39.38
2019-01-10T12:32:40.640Z,39.38
2019-01-10T12:33:41.816Z,39.38
2019-01-10T12:34:40.603Z,39.38
2019-01-10T12:35:40.596Z,39.38
2019-01-10T12:36:40.583Z,39.38
2019-01-10T12:37:40.567Z,39.38
2019-01-10T12:38:40.631Z,39.38
2019-01-10T12:39:40.550Z,45.00
2019-01-10T12:40:40.536Z,45.00
2019-01-10T12:41:40.529Z,50.62
2019-01-10T12:42:40.527Z,50.62
2019-01-10T12:43:40.531Z,50.62
2019-01-10T12:44:40.520Z,45.00
2019-01-10T12:45:41.981Z,45.00
2019-01-10T12:46:40.474Z,39.38
2019-01-10T12:47:40.476Z,39.38
2019-01-10T12:48:40.452Z,33.75
2019-01-10T12:49:40.448Z,39.38
2019-01-10T12:50:40.453Z,39.38
2019-01-10T12:51:40.444Z,33.75
2019-01-10T12:52:40.416Z,33.75
2019-01-10T12:53:40.395Z,28.12
2019-01-10T12:54:40.398Z,28.12
2019-01-10T12:55:40.385Z,28.12
2019-01-10T12:56:40.367Z,33.75
2019-01-10T12:57:40.353Z,39.38
2019-01-10T12:58:40.348Z,39.38
2019-01-10T12:59:40.337Z,39.38
2019-01-10T13:00:40.474Z,39.38
2019-01-10T13:01:40.331Z,33.75
2019-01-10T13:02:40.511Z,33.75
2019-01-10T13:03:40.364Z,39.38
2019-01-10T13:04:40.352Z,39.38
2019-01-10T13:05:40.365Z,39.38
2019-01-10T13:06:40.280Z,39.38
2019-01-10T13:07:40.258Z,39.38
2019-01-10T13:08:40.269Z,39.38